EST,Max TemperatureF,Mean TemperatureF,Min TemperatureF,Max Dew PointF,MeanDew PointF,Min DewpointF,Max Humidity, Mean Humidity, Min Humidity, Max Sea Level PressureIn, Mean Sea Level PressureIn, Min Sea Level PressureIn, Max VisibilityMiles, Mean VisibilityMiles, Min VisibilityMiles, Max Wind SpeedMPH, Mean Wind SpeedMPH, Max Gust SpeedMPH,PrecipitationIn, CloudCover, Events, WindDirDegrees
2014-1-1,48,38,28,27,23,17,75,57,36,30.36,30.26,30.11,10,10,10,9,2,,0.00,0,,232
2014-1-2,39,36,28,38,33,11,96,86,49,30.10,29.78,29.64,10,5,1,21,2,33,0.17,5,Rain,319
2014-1-3,32,25,18,12,4,0,63,42,27,30.43,30.24,29.86,10,10,10,21,10,33,0.00,0,,342
2014-1-4,36,26,16,16,12,6,88,52,35,30.45,30.36,30.23,10,10,6,6,1,,0.00,4,,345
2014-1-5,39,34,30,39,34,16,100,92,48,30.21,30.03,29.72,10,2,0,6,1,,0.13,8,Fog-Rain,329
2014-1-6,41,25,8,39,22,-10,100,69,31,30.22,29.82,29.64,10,7,1,21,6,33,0.07,4,Rain,285
2014-1-7,26,16,5,2,-7,-10,55,39,21,30.46,30.38,30.23,10,10,10,13,6,18,0.00,0,,250
2014-1-8,44,28,12,11,7,1,77,45,24,30.54,30.47,30.42,10,10,10,5,1,,0.00,0,,220
2014-1-9,46,36,25,19,13,1,72,43,15,30.53,30.47,30.43,10,10,10,5,1,,0.00,3,,331
2014-1-10,46,40,35,43,38,16,100,92,35,30.40,30.24,30.05,10,2,0,7,2,,0.61,8,Fog-Rain,16
2014-1-11,55,48,42,52,44,32,100,94,56,30.06,29.81,29.57,10,3,0,13,2,20,1.42,8,Fog-Rain-Thunderstorm,269
2014-1-12,55,48,41,30,27,23,62,46,28,30.12,29.99,29.75,10,10,10,13,7,21,0.00,0,,267
2014-1-13,53,42,30,42,33,26,90,68,47,30.10,30.02,29.91,10,10,8,12,4,18,0.04,2,Rain,192
2014-1-14,57,47,35,45,39,23,100,81,29,29.93,29.83,29.76,10,5,0,12,2,,0.14,6,Fog-Rain,295
2014-1-15,52,41,30,32,28,22,88,70,43,29.92,29.89,29.82,10,10,10,14,3,21,0.00,3,,325
2014-1-16,43,34,24,21,16,9,75,50,25,30.01,29.94,29.88,10,10,10,9,4,,0.00,0,,246
2014-1-17,50,37,24,22,18,12,75,49,29,29.94,29.88,29.78,10,10,9,17,4,30,0.00,0,,231
2014-1-18,37,30,23,14,9,4,48,41,30,30.06,29.96,29.88,10,10,10,12,8,21,0.00,1,,256
2014-1-19,50,38,25,23,18,10,75,46,31,29.95,29.91,29.88,10,10,10,14,3,24,0.00,0,,272
2014-1-20,66,46,26,23,19,12,81,39,16,29.87,29.82,29.76,10,10,10,16,5,17,0.00,0,,225
2014-1-21,48,38,26,26,22,12,75,54,37,29.83,29.67,29.53,10,10,10,16,4,31,0.00,2,,352
2014-1-22,33,26,19,10,0,-10,55,35,15,30.03,29.96,29.84,10,10,10,8,6,,0.00,1,,309
2014-1-23,36,28,18,6,1,-6,53,34,22,30.40,30.22,30.06,10,10,10,18,9,26,0.00,0,,302
2014-1-24,28,18,8,-6,-9,-15,48,31,15,30.58,30.43,30.18,10,10,10,13,8,21,0.00,0,,240
2014-1-25,37,28,18,18,4,-7,45,34,23,30.14,29.82,29.65,10,10,10,15,10,29,0.00,2,,223
2014-1-26,51,40,28,25,14,6,48,34,18,29.90,29.83,29.77,10,10,10,16,7,29,0.00,0,,217
2014-1-27,59,47,33,33,25,7,60,46,33,30.02,29.84,29.77,10,10,10,14,7,21,0.00,2,,300
2014-1-28,30,24,19,16,9,-8,86,64,21,30.27,30.18,30.03,10,5,1,12,7,17,0.00,7,Snow,52
2014-1-29,30,22,14,13,5,-2,84,54,27,30.31,30.24,30.15,10,10,5,7,1,,0.07,1,,349
2014-1-30,36,22,8,9,6,3,84,52,27,30.37,30.28,30.19,10,10,8,5,1,,0.01,0,,55
2014-1-31,53,36,18,20,13,10,74,46,20,30.18,30.14,30.08,10,10,10,7,2,,0.01,0,,339